Time;durP1;ratioP1;P1;durP2;ratioP2;P2;SDS_P1;SDS_P2;PMS_P1;PMS_P2;Temp;Humidity;BMP_temperature;BMP_pressure;BME280_temperature;BME280_humidity;BME280_pressure;Samples;Min_cycle;Max_cycle;Signal;HPM_P1;HPM_P2
2023/02/04 00:00:36;;;;;;;23.40;3.80;;;;;;;6.36;100.00;103055.06;5074135;28;20496;-53
2023/02/04 00:03:05;;;;;;;21.23;3.83;;;;;;;6.35;100.00;103060.31;5073994;28;20488;-51
2023/02/04 00:05:33;;;;;;;19.27;3.50;;;;;;;6.25;100.00;103065.63;5073656;28;20071;-53
2023/02/04 00:08:01;;;;;;;22.38;4.18;;;;;;;6.23;100.00;103054.34;5073669;28;20052;-49
2023/02/04 00:10:30;;;;;;;21.80;3.45;;;;;;;6.22;100.00;103070.91;5073526;28;20068;-48
2023/02/04 00:13:00;;;;;;;21.02;3.75;;;;;;;6.22;100.00;103068.28;5073875;28;20049;-50
2023/02/04 00:15:29;;;;;;;23.25;3.78;;;;;;;6.20;100.00;103070.06;5073483;28;20456;-49
2023/02/04 00:17:57;;;;;;;14.85;3.38;;;;;;;6.21;100.00;103069.16;5073513;28;20045;-50
2023/02/04 00:20:25;;;;;;;27.35;4.25;;;;;;;6.19;100.00;103076.16;5073365;28;20045;-48
2023/02/04 00:22:53;;;;;;;18.08;3.38;;;;;;;6.19;100.00;103081.41;5073496;28;20389;-48
2023/02/04 00:25:21;;;;;;;25.63;4.25;;;;;;;6.17;100.00;103077.91;5071407;28;20098;-54
2023/02/04 00:27:49;;;;;;;15.45;2.85;;;;;;;6.16;100.00;103084.06;5069217;28;20102;-50
2023/02/04 00:30:20;;;;;;;26.23;4.00;;;;;;;6.14;100.00;103079.72;5071710;28;20469;-51
2023/02/04 00:32:48;;;;;;;21.08;3.70;;;;;;;6.14;100.00;103084.94;5073603;28;20145;-49
2023/02/04 00:35:16;;;;;;;26.83;3.72;;;;;;;6.14;100.00;103084.94;5073245;28;20369;-49
2023/02/04 00:37:44;;;;;;;17.40;3.03;;;;;;;6.12;100.00;103092.78;5073398;28;20514;-48
2023/02/04 00:40:13;;;;;;;20.48;3.08;;;;;;;6.11;100.00;103088.44;5073329;28;20105;-49
2023/02/04 00:42:41;;;;;;;24.88;3.75;;;;;;;6.07;100.00;103099.81;5073101;28;20051;-49
2023/02/04 00:45:10;;;;;;;19.88;3.17;;;;;;;6.04;100.00;103098.09;5072912;28;20508;-49
2023/02/04 00:47:39;;;;;;;22.30;3.80;;;;;;;6.02;100.00;103099.84;5072333;28;20090;-49
2023/02/04 00:50:08;;;;;;;19.25;3.33;;;;;;;6.03;100.00;103100.72;5069213;28;20072;-52
2023/02/04 00:52:36;;;;;;;18.58;3.33;;;;;;;6.09;100.00;103093.69;5069930;28;20051;-51
2023/02/04 00:55:06;;;;;;;25.08;3.83;;;;;;;6.07;100.00;103099.81;5071787;28;20051;-53
2023/02/04 00:57:34;;;;;;;19.55;3.55;;;;;;;6.02;100.00;103112.06;5072849;28;20040;-53
2023/02/04 01:00:03;;;;;;;19.08;2.97;;;;;;;6.01;100.00;103102.47;5073174;28;20067;-53
2023/02/04 01:02:31;;;;;;;20.17;3.67;;;;;;;6.01;100.00;103105.09;5072779;28;20051;-51
2023/02/04 01:05:01;;;;;;;22.45;4.30;;;;;;;5.97;100.00;103106.84;5072263;28;20557;-51
2023/02/04 01:07:29;;;;;;;20.85;3.63;;;;;;;5.93;100.00;103108.63;5072482;28;20068;-50
2023/02/04 01:09:57;;;;;;;23.60;4.03;;;;;;;5.94;100.00;103112.09;5072806;28;20051;-53
2023/02/04 01:12:26;;;;;;;23.35;4.47;;;;;;;5.92;100.00;103106.88;5072189;28;20131;-50
2023/02/04 01:14:54;;;;;;;16.83;4.07;;;;;;;5.99;100.00;103101.63;5069166;28;20106;-51
2023/02/04 01:17:25;;;;;;;17.48;3.42;;;;;;;5.96;100.00;103112.06;5069689;28;20048;-52
2023/02/04 01:19:53;;;;;;;29.42;3.78;;;;;;;5.99;100.00;103101.63;5072925;28;20052;-52
2023/02/04 01:22:23;;;;;;;20.35;3.20;;;;;;;5.91;100.00;103107.75;5072688;28;20079;-50
2023/02/04 01:24:51;;;;;;;23.92;3.78;;;;;;;5.87;100.00;103118.25;5071239;28;20048;-52
2023/02/04 01:27:19;;;;;;;23.83;5.45;;;;;;;5.82;100.00;103123.53;5072714;28;20040;-51
2023/02/04 01:29:47;;;;;;;22.35;3.75;;;;;;;5.78;100.00;103124.44;5072469;28;20048;-51
2023/02/04 01:32:15;;;;;;;19.75;3.63;;;;;;;5.77;100.00;103133.13;5072234;28;20049;-51
2023/02/04 01:34:43;;;;;;;18.67;3.30;;;;;;;5.73;100.00;103129.69;5072577;28;20133;-53
2023/02/04 01:37:11;;;;;;;27.27;4.22;;;;;;;5.69;100.00;103127.13;5072276;28;20045;-53
2023/02/04 01:39:41;;;;;;;18.17;3.22;;;;;;;5.67;100.00;103141.91;5072358;28;20132;-50
2023/02/04 01:42:10;;;;;;;18.10;3.70;;;;;;;5.64;100.00;103142.81;5072565;28;20051;-52
2023/02/04 01:44:38;;;;;;;25.63;3.80;;;;;;;5.66;100.00;103143.66;5072596;28;20491;-50
2023/02/04 01:47:06;;;;;;;21.55;3.05;;;;;;;5.65;100.00;103144.53;5072500;28;20139;-51
2023/02/04 01:49:34;;;;;;;20.85;3.75;;;;;;;5.66;100.00;103153.22;5072362;28;20036;-62
2023/02/04 01:52:03;;;;;;;19.40;3.08;;;;;;;5.64;100.00;103161.06;5071947;28;20403;-63
2023/02/04 01:54:32;;;;;;;19.60;3.10;;;;;;;5.63;100.00;103158.47;5067496;28;20542;-63
2023/02/04 01:57:03;;;;;;;19.42;3.38;;;;;;;5.65;100.00;103164.56;5067773;28;20053;-63
2023/02/04 01:59:33;;;;;;;23.23;3.60;;;;;;;5.60;100.00;103167.19;5068244;28;20049;-63
2023/02/04 02:02:01;;;;;;;16.65;3.20;;;;;;;5.51;100.00;103162.91;5071243;28;20040;-62
2023/02/04 02:04:32;;;;;;;21.20;3.20;;;;;;;5.53;100.00;103178.56;5072111;28;20049;-63
2023/02/04 02:07:03;;;;;;;17.02;3.03;;;;;;;5.49;100.00;103172.50;5075413;28;20109;-63
2023/02/04 02:09:33;;;;;;;20.52;3.28;;;;;;;5.48;100.00;103173.38;5071432;28;20040;-63
2023/02/04 02:12:03;;;;;;;13.20;2.90;;;;;;;5.51;100.00;103177.72;5073589;28;20047;-63
2023/02/04 02:14:32;;;;;;;23.65;2.95;;;;;;;5.43;100.00;103177.75;5075933;28;20044;-63
2023/02/04 02:17:00;;;;;;;27.75;3.63;;;;;;;5.41;100.00;103177.78;5075876;28;20040;-63
2023/02/04 02:19:36;;;;;;;20.40;3.00;;;;;;;5.42;100.00;103178.63;5075618;28;20072;-63
2023/02/04 02:22:10;;;;;;;19.85;2.60;;;;;;;5.40;100.00;103170.81;5076023;28;20462;-63
2023/02/04 02:24:40;;;;;;;24.38;3.47;;;;;;;5.38;100.00;103174.31;5072700;28;20487;-63
2023/02/04 02:27:11;;;;;;;26.05;3.33;;;;;;;5.29;100.00;103174.34;5071141;28;20110;-63
2023/02/04 02:29:43;;;;;;;27.15;3.55;;;;;;;5.25;100.00;103177.00;5069975;28;20048;-63
2023/02/04 02:32:15;;;;;;;18.83;3.00;;;;;;;5.28;100.00;103185.69;5072189;28;20499;-63
2023/02/04 02:34:44;;;;;;;23.08;3.50;;;;;;;5.21;100.00;103185.72;5073648;28;20055;-63
2023/02/04 02:37:13;;;;;;;19.90;3.38;;;;;;;5.15;100.00;103184.88;5071562;28;20124;-63
2023/02/04 02:39:45;;;;;;;24.63;3.47;;;;;;;5.15;100.00;103190.09;5071097;28;20045;-63
2023/02/04 02:42:16;;;;;;;19.50;3.38;;;;;;;5.12;100.00;103185.75;5071503;28;20051;-63
2023/02/04 02:44:46;;;;;;;19.85;3.20;;;;;;;5.07;100.00;103188.41;5075334;28;20040;-63
2023/02/04 02:47:16;;;;;;;24.38;4.07;;;;;;;5.04;100.00;103190.16;5075198;28;20051;-63
2023/02/04 02:49:47;;;;;;;17.88;3.17;;;;;;;4.99;100.00;103189.28;5075217;28;20071;-62
2023/02/04 02:52:15;;;;;;;15.75;2.90;;;;;;;4.91;100.00;103184.13;5071848;28;20545;-62
2023/02/04 02:54:46;;;;;;;20.25;3.67;;;;;;;4.88;100.00;103198.03;5052922;28;20139;-63
2023/02/04 02:57:16;;;;;;;16.65;3.05;;;;;;;4.84;100.00;103185.00;5075084;28;20650;-63
2023/02/04 02:59:44;;;;;;;17.63;2.55;;;;;;;4.81;100.00;103200.66;5073575;28;20082;-63
2023/02/04 03:02:16;;;;;;;17.83;3.78;;;;;;;4.75;100.00;103193.72;5071478;28;20037;-63
2023/02/04 03:04:48;;;;;;;17.65;3.65;;;;;;;4.66;100.00;103193.75;5071235;28;20052;-63
2023/02/04 03:07:19;;;;;;;18.27;3.20;;;;;;;4.64;100.00;103198.13;5071723;28;20052;-62
2023/02/04 03:09:51;;;;;;;22.88;3.50;;;;;;;4.62;100.00;103205.94;5075056;28;20047;-62
2023/02/04 03:12:19;;;;;;;22.33;2.70;;;;;;;4.54;100.00;103203.34;5056779;28;20057;-63
2023/02/04 03:14:48;;;;;;;21.63;3.70;;;;;;;4.48;100.00;103202.50;5054068;28;20123;-63
2023/02/04 03:17:16;;;;;;;17.23;2.97;;;;;;;4.41;100.00;103196.41;5070280;28;20052;-62
2023/02/04 03:19:44;;;;;;;16.13;3.05;;;;;;;4.39;100.00;103212.06;5071010;28;20044;-61
2023/02/04 03:22:12;;;;;;;18.00;3.65;;;;;;;4.39;100.00;103208.56;5071281;28;20137;-62
2023/02/04 03:24:41;;;;;;;20.08;3.00;;;;;;;4.37;100.00;103218.13;5070356;28;20051;-62
2023/02/04 03:27:10;;;;;;;14.65;2.75;;;;;;;4.35;100.00;103220.75;5069955;28;20670;-61
2023/02/04 03:29:43;;;;;;;14.50;2.65;;;;;;;4.31;100.00;103219.00;5071318;28;20098;-61
2023/02/04 03:32:11;;;;;;;17.88;3.47;;;;;;;4.30;100.00;103219.88;5074018;28;20071;-61
2023/02/04 03:34:39;;;;;;;19.67;2.95;;;;;;;4.28;100.00;103223.34;5074341;28;20056;-61
2023/02/04 03:37:08;;;;;;;18.98;2.38;;;;;;;4.28;100.00;103223.34;5074307;28;20084;-61
2023/02/04 03:39:39;;;;;;;17.27;3.08;;;;;;;4.28;100.00;103225.97;5074310;28;20040;-61
2023/02/04 03:42:07;;;;;;;15.65;3.30;;;;;;;4.28;100.00;103228.56;5074390;28;20076;-63
2023/02/04 03:44:36;;;;;;;19.10;3.28;;;;;;;4.25;100.00;103226.81;5074154;28;20060;-63
2023/02/04 03:47:05;;;;;;;17.42;2.75;;;;;;;4.26;100.00;103222.50;5074097;28;20040;-63
2023/02/04 03:49:34;;;;;;;22.85;3.58;;;;;;;4.21;100.00;103222.47;5072505;28;20507;-63
2023/02/04 03:52:02;;;;;;;17.55;2.92;;;;;;;4.19;100.00;103227.69;5070628;28;20052;-61
2023/02/04 03:54:30;;;;;;;19.77;3.60;;;;;;;4.17;100.00;103231.16;5069489;28;20044;-63
2023/02/04 03:56:58;;;;;;;17.20;3.55;;;;;;;4.15;100.00;103217.28;5069561;28;20071;-53
2023/02/04 03:59:27;;;;;;;16.98;3.28;;;;;;;4.11;100.00;103223.38;5074137;28;20434;-62
2023/02/04 04:01:56;;;;;;;20.92;2.92;;;;;;;4.10;100.00;103216.41;5073540;28;20068;-62
2023/02/04 04:04:24;;;;;;;20.35;5.13;;;;;;;4.08;100.00;103224.25;5074011;28;20511;-62
2023/02/04 04:06:52;;;;;;;22.17;3.42;;;;;;;4.06;100.00;103225.97;5073718;28;20377;-61
2023/02/04 04:09:20;;;;;;;19.55;3.08;;;;;;;4.01;100.00;103220.75;5073346;28;20130;-62
2023/02/04 04:11:48;;;;;;;21.25;5.22;;;;;;;3.99;100.00;103229.44;5073518;28;20484;-61
2023/02/04 04:14:16;;;;;;;18.67;3.50;;;;;;;3.97;100.00;103236.41;5073506;28;20062;-62
2023/02/04 04:16:45;;;;;;;18.33;3.80;;;;;;;3.92;100.00;103231.16;5073425;28;20052;-62
2023/02/04 04:19:14;;;;;;;18.50;3.47;;;;;;;3.88;100.00;103230.28;5073522;28;20128;-62
2023/02/04 04:21:42;;;;;;;27.77;3.88;;;;;;;3.87;100.00;103233.78;5070423;28;20056;-62
2023/02/04 04:24:11;;;;;;;25.70;3.25;;;;;;;3.85;100.00;103229.44;5068988;28;20395;-62
2023/02/04 04:26:39;;;;;;;17.58;3.25;;;;;;;3.82;100.00;103230.28;5068690;28;20560;-62
2023/02/04 04:29:07;;;;;;;15.85;3.20;;;;;;;3.78;100.00;103233.75;5069886;28;20062;-62
2023/02/04 04:31:35;;;;;;;15.82;3.40;;;;;;;3.78;100.00;103236.34;5071384;28;20570;-61
2023/02/04 04:34:04;;;;;;;22.02;3.25;;;;;;;3.76;100.00;103243.28;5073115;28;20040;-61
2023/02/04 04:36:33;;;;;;;22.27;4.00;;;;;;;3.77;100.00;103249.38;5068881;28;20109;-61
2023/02/04 04:39:01;;;;;;;20.38;3.08;;;;;;;3.74;100.00;103247.63;5069161;28;20052;-62
2023/02/04 04:41:29;;;;;;;27.45;4.20;;;;;;;3.71;100.00;103256.31;5068172;28;20118;-62
2023/02/04 04:43:57;;;;;;;22.27;3.50;;;;;;;3.70;100.00;103253.69;5069618;28;20067;-62
2023/02/04 04:46:25;;;;;;;30.67;3.72;;;;;;;3.72;100.00;103254.56;5069172;28;20455;-62
2023/02/04 04:48:53;;;;;;;20.23;3.45;;;;;;;3.70;100.00;103251.09;5069585;28;20052;-62
2023/02/04 04:51:22;;;;;;;18.25;3.03;;;;;;;3.69;100.00;103262.38;5071335;28;20102;-61
2023/02/04 04:53:51;;;;;;;20.02;3.50;;;;;;;3.67;100.00;103267.56;5073090;28;20085;-61
2023/02/04 04:56:19;;;;;;;22.23;4.15;;;;;;;3.66;100.00;103262.38;5070173;28;20048;-61
2023/02/04 04:58:47;;;;;;;24.50;4.05;;;;;;;3.64;100.00;103267.56;5069304;28;20045;-61
2023/02/04 05:01:16;;;;;;;24.75;4.10;;;;;;;3.61;100.00;103262.34;5068650;28;20036;-61
2023/02/04 05:03:44;;;;;;;22.63;3.50;;;;;;;3.60;100.00;103260.63;5068969;28;20045;-61
2023/02/04 05:06:12;;;;;;;20.13;3.33;;;;;;;3.60;100.00;103267.53;5068914;28;20056;-61
2023/02/04 05:08:40;;;;;;;22.27;3.42;;;;;;;3.57;100.00;103273.59;5068432;28;20513;-61
2023/02/04 05:11:10;;;;;;;21.80;3.67;;;;;;;3.57;100.00;103276.19;5068597;28;20044;-61
2023/02/04 05:13:40;;;;;;;27.98;4.20;;;;;;;3.59;100.00;103277.09;5071791;28;21163;-61
2023/02/04 05:16:10;;;;;;;21.83;4.70;;;;;;;3.60;100.00;103268.44;5072682;28;20055;-61
2023/02/04 05:18:39;;;;;;;21.33;4.50;;;;;;;3.66;100.00;103267.56;5072418;28;20048;-62
2023/02/04 05:21:09;;;;;;;19.33;3.38;;;;;;;3.66;100.00;103283.19;5072595;28;20041;-62
2023/02/04 05:23:37;;;;;;;24.23;4.32;;;;;;;3.69;100.00;103291.00;5069805;28;20518;-62
2023/02/04 05:26:05;;;;;;;26.58;3.80;;;;;;;3.73;100.00;103287.53;5068165;28;20044;-61
2023/02/04 05:28:35;;;;;;;21.27;3.65;;;;;;;3.75;100.00;103285.81;5068404;28;20430;-61
2023/02/04 05:31:03;;;;;;;25.52;5.55;;;;;;;3.77;100.00;103283.22;5047278;28;20423;-61
2023/02/04 05:33:31;;;;;;;26.85;3.83;;;;;;;3.79;100.00;103287.56;5048280;28;20041;-61
2023/02/04 05:35:59;;;;;;;24.55;4.32;;;;;;;3.82;100.00;103286.72;5050884;28;20041;-61
2023/02/04 05:38:27;;;;;;;24.52;4.60;;;;;;;3.84;100.00;103282.34;5049937;28;20044;-62
2023/02/04 05:40:55;;;;;;;28.88;4.03;;;;;;;3.87;100.00;103280.63;5052322;28;20067;-61
2023/02/04 05:43:23;;;;;;;29.05;4.20;;;;;;;3.89;100.00;103284.09;5055248;28;20930;-61
2023/02/04 05:45:53;;;;;;;24.20;4.10;;;;;;;3.91;100.00;103285.84;5056257;28;20083;-62
2023/02/04 05:48:21;;;;;;;23.35;4.75;;;;;;;3.93;100.00;103291.91;5057289;28;20578;-61
2023/02/04 05:50:49;;;;;;;25.67;4.03;;;;;;;3.93;100.00;103287.59;5054687;28;20045;-61
2023/02/04 05:53:17;;;;;;;20.33;5.15;;;;;;;3.94;100.00;103288.44;5055333;28;20055;-61
2023/02/04 05:55:45;;;;;;;21.50;3.75;;;;;;;3.95;100.00;103301.47;5053414;28;20049;-61
2023/02/04 05:58:13;;;;;;;24.45;3.40;;;;;;;3.97;100.00;103293.69;5055129;28;20077;-61
2023/02/04 06:00:41;;;;;;;19.58;3.58;;;;;;;3.97;100.00;103302.34;5058875;28;20079;-62
2023/02/04 06:03:12;;;;;;;26.30;4.60;;;;;;;3.96;100.00;103300.59;5058874;28;20051;-62
2023/02/04 06:05:40;;;;;;;22.42;3.53;;;;;;;3.96;100.00;103303.22;5055479;28;20047;-62
2023/02/04 06:08:09;;;;;;;23.48;4.20;;;;;;;3.94;100.00;103301.47;5055908;28;20515;-61
2023/02/04 06:10:37;;;;;;;30.13;4.68;;;;;;;3.93;100.00;103303.22;5058471;28;20053;-60
2023/02/04 06:13:05;;;;;;;21.92;4.05;;;;;;;3.88;100.00;103300.56;5057711;28;20512;-63
2023/02/04 06:15:34;;;;;;;22.08;3.50;;;;;;;3.87;100.00;103300.56;5055148;28;20052;-62
2023/02/04 06:18:02;;;;;;;24.85;5.00;;;;;;;3.88;100.00;103311.00;5055167;28;20044;-62
2023/02/04 06:20:31;;;;;;;22.15;4.13;;;;;;;3.87;100.00;103304.06;5054580;28;20048;-62
2023/02/04 06:23:00;;;;;;;17.90;3.67;;;;;;;3.85;100.00;103316.19;5055471;28;20049;-62
2023/02/04 06:25:28;;;;;;;20.75;3.42;;;;;;;3.85;100.00;103311.00;5055257;28;20041;-62
2023/02/04 06:27:56;;;;;;;17.35;3.28;;;;;;;3.84;100.00;103309.25;5057165;28;20049;-63
2023/02/04 06:30:24;;;;;;;21.17;3.33;;;;;;;3.84;100.00;103313.59;5070336;28;20084;-63
2023/02/04 06:32:52;;;;;;;19.52;3.33;;;;;;;3.84;100.00;103314.44;5054917;28;20033;-62
2023/02/04 06:35:20;;;;;;;21.05;3.17;;;;;;;3.85;100.00;103315.34;5054254;28;20068;-62
2023/02/04 06:37:49;;;;;;;25.73;4.00;;;;;;;3.88;100.00;103330.97;5058449;28;20408;-63
2023/02/04 06:40:18;;;;;;;22.00;4.30;;;;;;;3.84;100.00;103321.41;5057274;28;20055;-62
2023/02/04 06:42:46;;;;;;;19.60;4.25;;;;;;;3.86;100.00;103332.72;5054431;28;20047;-63
2023/02/04 06:45:14;;;;;;;20.50;4.00;;;;;;;3.84;100.00;103335.28;5054553;28;20043;-63
2023/02/04 06:47:42;;;;;;;17.95;3.47;;;;;;;3.85;100.00;103341.38;5054707;28;20053;-63
2023/02/04 06:50:11;;;;;;;20.13;4.20;;;;;;;3.85;100.00;103336.16;5054905;28;20399;-63
2023/02/04 06:52:39;;;;;;;19.15;3.35;;;;;;;3.84;100.00;103340.50;5050201;28;20120;-54
2023/02/04 06:55:09;;;;;;;18.25;4.53;;;;;;;3.83;100.00;103343.09;5067469;28;20048;-49
2023/02/04 06:57:37;;;;;;;15.52;3.50;;;;;;;3.84;100.00;103347.44;5054672;28;20124;-50
2023/02/04 07:00:06;;;;;;;21.65;4.30;;;;;;;3.85;100.00;103349.19;5055222;28;20063;-54
2023/02/04 07:02:35;;;;;;;21.63;3.80;;;;;;;3.83;100.00;103354.41;5055059;28;20053;-49
2023/02/04 07:05:03;;;;;;;20.73;4.13;;;;;;;3.84;100.00;103360.47;5055005;28;20048;-53
2023/02/04 07:07:32;;;;;;;21.13;4.22;;;;;;;3.87;100.00;103363.06;5054946;28;20052;-51
2023/02/04 07:10:00;;;;;;;23.60;4.18;;;;;;;3.88;100.00;103370.88;5055051;28;20073;-53
2023/02/04 07:12:30;;;;;;;21.38;4.25;;;;;;;3.89;100.00;103372.63;5055056;28;20140;-52
2023/02/04 07:14:58;;;;;;;15.38;3.42;;;;;;;3.91;100.00;103377.84;5054945;28;20119;-52
2023/02/04 07:17:26;;;;;;;16.48;3.80;;;;;;;3.93;100.00;103372.63;5054873;28;20049;-50
2023/02/04 07:19:56;;;;;;;23.73;4.60;;;;;;;3.95;100.00;103374.38;5054920;28;20384;-51
2023/02/04 07:22:24;;;;;;;25.33;4.22;;;;;;;3.97;100.00;103379.63;5054652;28;20049;-50
2023/02/04 07:24:52;;;;;;;18.38;3.88;;;;;;;3.99;100.00;103381.31;5070241;28;20065;-52
2023/02/04 07:27:23;;;;;;;18.88;4.35;;;;;;;4.00;100.00;103379.63;5050668;28;20044;-51
2023/02/04 07:29:52;;;;;;;29.48;5.20;;;;;;;4.02;100.00;103383.97;5051100;28;20090;-53
2023/02/04 07:32:20;;;;;;;25.27;4.70;;;;;;;4.04;100.00;103383.97;5070330;28;20570;-54
2023/02/04 07:34:48;;;;;;;23.75;4.43;;;;;;;4.07;100.00;103394.38;5071700;28;20048;-49
2023/02/04 07:37:20;;;;;;;23.45;4.40;;;;;;;4.10;100.00;103391.78;5074566;28;20055;-50
2023/02/04 07:39:48;;;;;;;26.48;4.68;;;;;;;4.12;100.00;103392.66;5071016;28;20114;-52
2023/02/04 07:42:16;;;;;;;17.77;4.10;;;;;;;4.14;100.00;103401.34;5070070;28;20075;-49
2023/02/04 07:44:44;;;;;;;24.73;5.22;;;;;;;4.16;100.00;103410.03;5072966;28;20063;-50
2023/02/04 07:47:13;;;;;;;16.92;4.43;;;;;;;4.18;100.00;103412.66;5070222;28;20072;-62
2023/02/04 07:49:41;;;;;;;25.30;4.40;;;;;;;4.21;100.00;103413.53;5054476;28;20053;-62
2023/02/04 07:52:09;;;;;;;19.70;5.95;;;;;;;4.23;100.00;103411.78;5071081;28;20094;-62
2023/02/04 07:54:37;;;;;;;26.00;3.90;;;;;;;4.25;100.00;103417.00;5069389;28;20403;-62
2023/02/04 07:57:06;;;;;;;23.13;4.85;;;;;;;4.29;100.00;103426.56;5069517;28;20495;-61
2023/02/04 07:59:34;;;;;;;22.60;5.10;;;;;;;4.30;100.00;103427.44;5070281;28;20120;-61
2023/02/04 08:02:02;;;;;;;27.52;4.75;;;;;;;4.34;100.00;103437.00;5070170;28;20412;-61
2023/02/04 08:04:31;;;;;;;26.00;4.90;;;;;;;4.35;100.00;103439.63;5069777;28;20040;-61
2023/02/04 08:06:59;;;;;;;19.38;4.38;;;;;;;4.40;100.00;103444.81;5070430;28;20123;-61
2023/02/04 08:09:27;;;;;;;17.88;4.63;;;;;;;4.42;100.00;103450.94;5073552;28;20045;-48
2023/02/04 08:11:56;;;;;;;25.55;5.22;;;;;;;4.47;100.00;103450.94;5073242;28;20063;-52
2023/02/04 08:14:24;;;;;;;22.65;5.10;;;;;;;4.51;100.00;103457.88;5073182;28;20490;-52
2023/02/04 08:16:52;;;;;;;32.33;5.68;;;;;;;4.56;100.00;103456.16;5073421;28;20063;-51
2023/02/04 08:19:20;;;;;;;24.48;5.38;;;;;;;4.62;100.00;103460.50;5073470;28;20045;-50
2023/02/04 08:21:50;;;;;;;22.48;5.00;;;;;;;4.69;100.00;103462.25;5073504;28;20479;-51
2023/02/04 08:24:18;;;;;;;33.13;5.63;;;;;;;4.73;100.00;103466.59;5073619;28;20128;-50
2023/02/04 08:26:46;;;;;;;30.20;5.55;;;;;;;4.79;100.00;103458.81;5073499;28;20044;-52
2023/02/04 08:29:14;;;;;;;28.90;4.78;;;;;;;4.83;100.00;103465.75;5073358;28;20105;-52
2023/02/04 08:31:42;;;;;;;26.85;6.05;;;;;;;4.91;100.00;103469.25;5072868;28;20083;-51
2023/02/04 08:34:10;;;;;;;27.08;5.78;;;;;;;4.96;100.00;103466.63;5069333;28;20105;-52
2023/02/04 08:36:38;;;;;;;29.35;6.80;;;;;;;5.01;100.00;103466.66;5069678;28;20047;-49
2023/02/04 08:39:08;;;;;;;41.72;7.45;;;;;;;5.05;100.00;103476.22;5073147;28;20525;-51
2023/02/04 08:41:36;;;;;;;33.03;6.13;;;;;;;5.09;100.00;103467.50;5073114;28;20495;-51
2023/02/04 08:44:04;;;;;;;29.75;5.40;;;;;;;5.18;100.00;103471.84;5073342;28;20423;-51
2023/02/04 08:46:32;;;;;;;28.48;5.60;;;;;;;5.24;100.00;103472.72;5073183;28;20101;-51
2023/02/04 08:49:00;;;;;;;30.27;6.13;;;;;;;5.29;100.00;103469.22;5055167;28;20110;-53
2023/02/04 08:51:29;;;;;;;27.92;5.20;;;;;;;5.35;100.00;103475.31;5072850;28;20114;-52
2023/02/04 08:53:57;;;;;;;33.72;5.40;;;;;;;5.43;100.00;103483.16;5070551;28;20063;-51
2023/02/04 08:56:26;;;;;;;29.10;5.63;;;;;;;5.49;100.00;103480.50;5068172;28;20539;-52
2023/02/04 08:58:54;;;;;;;19.80;4.05;;;;;;;5.55;100.00;103477.91;5069343;28;20043;-51
2023/02/04 09:01:22;;;;;;;27.33;5.88;;;;;;;5.65;100.00;103480.50;5068585;28;20105;-52
2023/02/04 09:03:50;;;;;;;37.45;6.60;;;;;;;5.68;100.00;103473.50;5072683;28;20741;-48
2023/02/04 09:06:19;;;;;;;31.48;6.30;;;;;;;5.76;100.00;103470.88;5072715;28;20499;-51
2023/02/04 09:08:47;;;;;;;33.17;6.95;;;;;;;5.78;100.00;103477.00;5070415;28;20679;-50
2023/02/04 09:11:15;;;;;;;33.67;6.53;;;;;;;5.84;100.00;103482.16;5067866;28;20049;-51
2023/02/04 09:13:45;;;;;;;29.30;6.10;;;;;;;5.89;100.00;103476.91;5071984;28;20036;-50
2023/02/04 09:16:13;;;;;;;33.20;6.80;;;;;;;5.99;100.00;103481.28;5071007;28;20147;-49
2023/02/04 09:18:41;;;;;;;28.65;6.25;;;;;;;6.04;100.00;103489.09;5068644;28;20106;-49
2023/02/04 09:21:12;;;;;;;32.67;5.88;;;;;;;6.05;100.00;103488.22;5070552;28;20048;-50
2023/02/04 09:23:40;;;;;;;36.28;6.35;;;;;;;6.12;100.00;103497.78;5072454;28;20052;-49
2023/02/04 09:26:08;;;;;;;25.63;5.93;;;;;;;6.20;100.00;103502.97;5072599;28;20052;-51
2023/02/04 09:28:36;;;;;;;29.23;5.50;;;;;;;6.27;100.00;103504.69;5072372;28;20052;-51
2023/02/04 09:31:06;;;;;;;34.85;6.15;;;;;;;6.29;100.00;103500.31;5072510;28;20060;-50
2023/02/04 09:33:35;;;;;;;25.88;5.30;;;;;;;6.36;100.00;103509.00;5072473;28;20072;-48
2023/02/04 09:36:04;;;;;;;28.10;5.72;;;;;;;6.37;100.00;103502.91;5072582;28;20048;-48
2023/02/04 09:38:32;;;;;;;29.52;5.63;;;;;;;6.43;100.00;103508.97;5072552;28;20492;-50
2023/02/04 09:41:04;;;;;;;30.63;5.97;;;;;;;6.48;100.00;103503.72;5072480;28;20045;-51
2023/02/04 09:43:38;;;;;;;25.25;5.57;;;;;;;6.51;100.00;103498.47;5072562;28;20079;-50
2023/02/04 09:46:09;;;;;;;27.63;5.82;;;;;;;6.60;100.00;103501.03;5072649;28;20036;-50
2023/02/04 09:48:37;;;;;;;27.38;5.30;;;;;;;6.62;100.00;103505.38;5072324;28;20131;-49
2023/02/04 09:51:08;;;;;;;23.55;5.25;;;;;;;6.66;100.00;103507.09;5054308;28;20071;-52
2023/02/04 09:53:37;;;;;;;26.80;5.85;;;;;;;6.65;100.00;103503.59;5071327;28;20388;-49
2023/02/04 09:56:06;;;;;;;26.13;4.65;;;;;;;6.72;100.00;103507.06;5067834;28;20500;-53
2023/02/04 09:58:35;;;;;;;33.10;4.80;;;;;;;6.70;100.00;103508.81;5069870;28;20502;-53
2023/02/04 10:01:13;;;;;;;30.20;5.03;;;;;;;6.90;100.00;103506.09;5072101;28;20395;-54
2023/02/04 10:03:45;;;;;;;28.48;5.13;;;;;;;7.09;100.00;103517.28;5072125;28;20386;-53
2023/02/04 10:06:15;;;;;;;27.17;5.53;;;;;;;7.18;100.00;103525.03;5071899;28;20496;-52
2023/02/04 10:08:44;;;;;;;29.48;4.47;;;;;;;7.22;100.00;103531.97;5071704;28;20106;-51
2023/02/04 10:11:13;;;;;;;23.25;4.45;;;;;;;7.21;100.00;103526.75;5072059;28;20574;-48
2023/02/04 10:13:45;;;;;;;26.10;5.10;;;;;;;7.24;100.00;103522.38;5072242;28;20526;-50
2023/02/04 10:16:18;;;;;;;31.35;4.68;;;;;;;7.36;100.00;103524.03;5072090;28;20040;-48
2023/02/04 10:18:46;;;;;;;27.13;5.43;;;;;;;7.43;100.00;103530.06;5072195;28;20052;-51
2023/02/04 10:21:17;;;;;;;27.75;4.93;;;;;;;7.51;100.00;103536.13;5072024;28;20110;-53
2023/02/04 10:23:49;;;;;;;28.38;4.53;;;;;;;7.55;100.00;103529.97;5072006;28;20059;-51
2023/02/04 10:26:26;;;;;;;28.95;4.75;;;;;;;7.69;100.00;103531.56;5072785;28;20426;-52
2023/02/04 10:28:59;;;;;;;32.90;5.18;;;;;;;7.93;100.00;103536.56;5075177;28;20127;-50
2023/02/04 10:31:37;;;;;;;36.35;6.10;;;;;;;8.02;100.00;103532.97;5071597;28;20052;-51
2023/02/04 10:34:07;;;;;;;29.20;4.68;;;;;;;8.05;100.00;103526.81;5074258;28;20052;-52
2023/02/04 10:36:38;;;;;;;23.33;4.65;;;;;;;8.13;100.00;103525.81;5075633;28;20044;-50
2023/02/04 10:39:12;;;;;;;33.13;4.68;;;;;;;8.61;100.00;103527.84;5075539;28;20036;-50
2023/02/04 10:41:45;;;;;;;26.05;4.30;;;;;;;8.78;100.00;103532.88;5071227;28;20044;-52
2023/02/04 10:44:18;;;;;;;32.03;4.57;;;;;;;8.86;100.00;103534.50;5073347;28;20103;-51
2023/02/04 10:46:48;;;;;;;29.38;5.03;;;;;;;8.94;100.00;103530.91;5075425;28;20036;-51
2023/02/04 10:49:19;;;;;;;23.38;4.53;;;;;;;8.92;100.00;103537.06;5075479;28;20066;-50
2023/02/04 10:51:49;;;;;;;28.92;5.82;;;;;;;9.29;100.00;103546.97;5075235;28;20171;-54
2023/02/04 10:54:30;;;;;;;28.75;4.70;;;;;;;9.39;100.00;103537.16;5075200;28;20052;-49
2023/02/04 10:57:12;;;;;;;44.35;5.93;;;;;;;9.46;100.00;103549.28;5074159;28;20048;-51
2023/02/04 10:59:41;;;;;;;27.73;5.45;;;;;;;9.54;100.00;103541.28;5053415;28;20076;-51
2023/02/04 11:02:36;;;;;;;34.78;5.30;;;;;;;9.56;100.00;103544.75;5074389;28;20032;-50
2023/02/04 11:05:12;;;;;;;27.30;4.90;;;;;;;9.61;100.00;103535.00;5075197;28;20049;-52
2023/02/04 11:07:41;;;;;;;26.55;4.63;;;;;;;9.70;100.00;103534.84;5072956;28;20698;-52
2023/02/04 11:10:17;;;;;;;31.38;5.38;;;;;;;9.68;100.00;103539.28;5070726;28;20564;-51
2023/02/04 11:12:47;;;;;;;23.73;4.35;;;;;;;9.77;100.00;103527.72;5074521;28;20520;-51
2023/02/04 11:15:44;;;;;;;30.08;5.45;;;;;;;10.03;100.00;103534.22;5074093;28;20054;-50
2023/02/04 11:18:30;;;;;;;30.35;4.60;;;;;;;9.97;100.00;103524.72;5071240;28;20055;-52
2023/02/04 11:20:59;;;;;;;31.65;6.18;;;;;;;9.94;100.00;103536.16;5074217;28;20127;-52
2023/02/04 11:23:35;;;;;;;26.73;5.32;;;;;;;9.97;100.00;103535.22;5074756;28;20336;-52
2023/02/04 11:26:07;;;;;;;28.27;4.60;;;;;;;9.99;100.00;103536.03;5074641;28;20048;-53